sensor_id;sensor_type;location;lat;lon;timestamp;pressure;altitude;pressure_sealevel;temperature;humidity
70053;BME280;57398;52.032;4.376;2023-05-01T00:02:11;101737.66;;;8.58;nan
70053;BME280;57398;52.032;4.376;2023-05-01T00:05:01;101732.94;;;8.62;nan
70053;BME280;57398;52.032;4.376;2023-05-01T00:07:50;101751.56;;;8.72;nan
70053;BME280;57398;52.032;4.376;2023-05-01T00:10:38;101765.69;;;8.69;nan
70053;BME280;57398;52.032;4.376;2023-05-01T00:13:26;101773.06;;;8.72;nan
70053;BME280;57398;52.032;4.376;2023-05-01T00:16:14;101772.72;;;8.75;nan
70053;BME280;57398;52.032;4.376;2023-05-01T00:19:03;101781.78;;;8.86;nan
70053;BME280;57398;52.032;4.376;2023-05-01T00:21:53;101788.59;;;8.87;nan
70053;BME280;57398;52.032;4.376;2023-05-01T00:24:41;101798.41;;;8.92;nan
70053;BME280;57398;52.032;4.376;2023-05-01T00:27:30;101796.38;;;8.87;nan
70053;BME280;57398;52.032;4.376;2023-05-01T00:30:18;101806.00;;;8.93;nan
70053;BME280;57398;52.032;4.376;2023-05-01T00:33:07;101807.66;;;9.01;nan
70053;BME280;57398;52.032;4.376;2023-05-01T00:35:56;101817.66;;;9.04;nan
70053;BME280;57398;52.032;4.376;2023-05-01T00:38:45;101820.25;;;9.04;nan
70053;BME280;57398;52.032;4.376;2023-05-01T00:41:33;101824.63;;;9.04;nan
70053;BME280;57398;52.032;4.376;2023-05-01T00:44:22;101830.81;;;9.02;nan
70053;BME280;57398;52.032;4.376;2023-05-01T00:47:10;101823.03;;;9.02;nan
70053;BME280;57398;52.032;4.376;2023-05-01T00:49:58;101820.69;;;9.08;nan
70053;BME280;57398;52.032;4.376;2023-05-01T00:52:47;101804.94;;;9.09;nan
70053;BME280;57398;52.032;4.376;2023-05-01T00:55:37;101802.97;;;9.11;nan
70053;BME280;57398;52.032;4.376;2023-05-01T00:58:28;101797.00;;;9.11;nan
70053;BME280;57398;52.032;4.376;2023-05-01T01:01:16;101783.97;;;9.04;nan
70053;BME280;57398;52.032;4.376;2023-05-01T01:04:04;101779.84;;;9.10;nan
70053;BME280;57398;52.032;4.376;2023-05-01T01:06:58;101766.50;;;9.13;nan
70053;BME280;57398;52.032;4.376;2023-05-01T01:09:58;101760.59;;;9.19;nan
70053;BME280;57398;52.032;4.376;2023-05-01T01:12:58;101756.44;;;9.25;nan
70053;BME280;57398;52.032;4.376;2023-05-01T01:15:55;101756.38;;;9.18;nan
70053;BME280;57398;52.032;4.376;2023-05-01T01:18:48;101745.59;;;9.14;nan
70053;BME280;57398;52.032;4.376;2023-05-01T01:21:40;101741.75;;;9.10;nan
70053;BME280;57398;52.032;4.376;2023-05-01T01:24:45;101732.38;;;9.09;nan
70053;BME280;57398;52.032;4.376;2023-05-01T01:27:56;101740.69;;;9.05;nan
70053;BME280;57398;52.032;4.376;2023-05-01T01:31:07;101740.28;;;9.01;nan
70053;BME280;57398;52.032;4.376;2023-05-01T01:34:07;101742.63;;;8.96;nan
70053;BME280;57398;52.032;4.376;2023-05-01T01:37:03;101747.38;;;8.92;nan
70053;BME280;57398;52.032;4.376;2023-05-01T01:40:00;101746.13;;;8.88;nan
70053;BME280;57398;52.032;4.376;2023-05-01T01:42:52;101746.50;;;8.85;nan
70053;BME280;57398;52.032;4.376;2023-05-01T01:45:46;101742.75;;;8.88;nan
70053;BME280;57398;52.032;4.376;2023-05-01T01:48:38;101741.94;;;8.87;nan
70053;BME280;57398;52.032;4.376;2023-05-01T01:51:30;101740.34;;;8.86;nan
70053;BME280;57398;52.032;4.376;2023-05-01T01:54:22;101734.91;;;8.81;nan
70053;BME280;57398;52.032;4.376;2023-05-01T01:57:15;101735.91;;;8.80;nan
70053;BME280;57398;52.032;4.376;2023-05-01T02:00:05;101737.50;;;8.81;nan
70053;BME280;57398;52.032;4.376;2023-05-01T02:02:55;101736.06;;;8.78;nan
70053;BME280;57398;52.032;4.376;2023-05-01T02:05:46;101730.44;;;8.75;nan
70053;BME280;57398;52.032;4.376;2023-05-01T02:08:36;101733.59;;;8.70;nan
70053;BME280;57398;52.032;4.376;2023-05-01T02:11:25;101722.38;;;8.63;nan
70053;BME280;57398;52.032;4.376;2023-05-01T02:14:16;101723.97;;;8.64;nan
70053;BME280;57398;52.032;4.376;2023-05-01T02:17:05;101731.13;;;8.62;nan
70053;BME280;57398;52.032;4.376;2023-05-01T02:19:55;101725.34;;;8.60;nan
70053;BME280;57398;52.032;4.376;2023-05-01T02:22:45;101730.06;;;8.56;nan
70053;BME280;57398;52.032;4.376;2023-05-01T02:25:37;101742.41;;;8.54;nan
70053;BME280;57398;52.032;4.376;2023-05-01T02:28:28;101751.25;;;8.45;nan
70053;BME280;57398;52.032;4.376;2023-05-01T02:31:17;101759.28;;;8.50;nan
70053;BME280;57398;52.032;4.376;2023-05-01T02:34:05;101756.50;;;8.52;nan
70053;BME280;57398;52.032;4.376;2023-05-01T02:36:53;101753.03;;;8.45;nan
70053;BME280;57398;52.032;4.376;2023-05-01T02:39:41;101751.25;;;8.45;nan
70053;BME280;57398;52.032;4.376;2023-05-01T02:42:31;101754.03;;;8.44;nan
70053;BME280;57398;52.032;4.376;2023-05-01T02:45:21;101753.41;;;8.42;nan
70053;BME280;57398;52.032;4.376;2023-05-01T02:48:12;101748.56;;;8.38;nan
70053;BME280;57398;52.032;4.376;2023-05-01T02:51:03;101747.13;;;8.36;nan
70053;BME280;57398;52.032;4.376;2023-05-01T02:53:53;101741.94;;;8.36;nan
70053;BME280;57398;52.032;4.376;2023-05-01T02:56:41;101734.38;;;8.34;nan
70053;BME280;57398;52.032;4.376;2023-05-01T02:59:31;101732.22;;;8.38;nan
70053;BME280;57398;52.032;4.376;2023-05-01T03:02:19;101727.78;;;8.32;nan
70053;BME280;57398;52.032;4.376;2023-05-01T03:05:08;101741.88;;;8.44;nan
70053;BME280;57398;52.032;4.376;2023-05-01T03:07:56;101740.81;;;8.38;nan
70053;BME280;57398;52.032;4.376;2023-05-01T03:10:44;101735.00;;;8.36;nan
70053;BME280;57398;52.032;4.376;2023-05-01T03:13:32;101732.41;;;8.36;nan
70053;BME280;57398;52.032;4.376;2023-05-01T03:16:22;101734.81;;;8.38;nan
70053;BME280;57398;52.032;4.376;2023-05-01T03:19:10;101720.88;;;8.39;nan
70053;BME280;57398;52.032;4.376;2023-05-01T03:21:58;101725.44;;;8.37;nan
70053;BME280;57398;52.032;4.376;2023-05-01T03:24:46;101721.84;;;8.38;nan
70053;BME280;57398;52.032;4.376;2023-05-01T03:27:36;101716.69;;;8.38;nan
70053;BME280;57398;52.032;4.376;2023-05-01T03:30:24;101717.34;;;8.40;nan
70053;BME280;57398;52.032;4.376;2023-05-01T03:33:14;101714.91;;;8.38;nan
70053;BME280;57398;52.032;4.376;2023-05-01T03:36:03;101705.63;;;8.44;nan
70053;BME280;57398;52.032;4.376;2023-05-01T03:38:51;101706.63;;;8.43;nan
70053;BME280;57398;52.032;4.376;2023-05-01T03:41:40;101708.22;;;8.44;nan
70053;BME280;57398;52.032;4.376;2023-05-01T03:44:29;101700.19;;;8.39;nan
70053;BME280;57398;52.032;4.376;2023-05-01T03:47:18;101705.25;;;8.47;nan
70053;BME280;57398;52.032;4.376;2023-05-01T03:50:08;101698.50;;;8.46;nan
70053;BME280;57398;52.032;4.376;2023-05-01T03:52:57;101712.47;;;8.52;nan
70053;BME280;57398;52.032;4.376;2023-05-01T03:55:45;101711.13;;;8.56;nan
70053;BME280;57398;52.032;4.376;2023-05-01T03:58:33;101707.38;;;8.58;nan
70053;BME280;57398;52.032;4.376;2023-05-01T04:01:21;101707.38;;;8.58;nan
70053;BME280;57398;52.032;4.376;2023-05-01T04:04:10;101708.38;;;8.57;nan
70053;BME280;57398;52.032;4.376;2023-05-01T04:06:59;101713.97;;;8.61;nan
70053;BME280;57398;52.032;4.376;2023-05-01T04:09:48;101695.03;;;8.60;nan
70053;BME280;57398;52.032;4.376;2023-05-01T04:12:36;101709.88;;;8.67;nan
70053;BME280;57398;52.032;4.376;2023-05-01T04:15:24;101703.69;;;8.68;nan
70053;BME280;57398;52.032;4.376;2023-05-01T04:18:13;101703.06;;;8.66;nan
70053;BME280;57398;52.032;4.376;2023-05-01T04:21:01;101702.50;;;8.70;nan
70053;BME280;57398;52.032;4.376;2023-05-01T04:23:51;101703.34;;;8.71;nan
70053;BME280;57398;52.032;4.376;2023-05-01T04:26:39;101698.94;;;8.71;nan
70053;BME280;57398;52.032;4.376;2023-05-01T04:29:28;101697.72;;;8.67;nan
70053;BME280;57398;52.032;4.376;2023-05-01T04:32:16;101706.53;;;8.73;nan
70053;BME280;57398;52.032;4.376;2023-05-01T04:35:05;101696.19;;;8.73;nan
70053;BME280;57398;52.032;4.376;2023-05-01T04:37:53;101688.59;;;8.71;nan
70053;BME280;57398;52.032;4.376;2023-05-01T04:40:43;101693.38;;;8.74;nan
70053;BME280;57398;52.032;4.376;2023-05-01T04:43:32;101689.00;;;8.75;nan
70053;BME280;57398;52.032;4.376;2023-05-01T04:46:20;101687.03;;;8.77;nan
70053;BME280;57398;52.032;4.376;2023-05-01T04:49:08;101692.91;;;8.86;nan
70053;BME280;57398;52.032;4.376;2023-05-01T04:51:56;101697.53;;;8.90;nan
70053;BME280;57398;52.032;4.376;2023-05-01T04:54:44;101703.94;;;8.94;nan
70053;BME280;57398;52.032;4.376;2023-05-01T04:57:34;101702.94;;;8.95;nan
70053;BME280;57398;52.032;4.376;2023-05-01T05:00:22;101690.25;;;9.00;nan
70053;BME280;57398;52.032;4.376;2023-05-01T05:03:10;101696.06;;;9.02;nan
70053;BME280;57398;52.032;4.376;2023-05-01T05:05:58;101690.31;;;9.07;nan
70053;BME280;57398;52.032;4.376;2023-05-01T05:08:46;101680.75;;;9.08;nan
70053;BME280;57398;52.032;4.376;2023-05-01T05:11:37;101689.97;;;9.17;nan
70053;BME280;57398;52.032;4.376;2023-05-01T05:14:30;101687.63;;;9.22;nan
70053;BME280;57398;52.032;4.376;2023-05-01T05:17:18;101680.06;;;9.27;nan
70053;BME280;57398;52.032;4.376;2023-05-01T05:20:07;101681.53;;;9.36;nan
70053;BME280;57398;52.032;4.376;2023-05-01T05:22:56;101679.00;;;9.43;nan
70053;BME280;57398;52.032;4.376;2023-05-01T05:25:44;101671.25;;;9.50;nan
70053;BME280;57398;52.032;4.376;2023-05-01T05:28:33;101666.72;;;9.58;nan
70053;BME280;57398;52.032;4.376;2023-05-01T05:31:22;101657.75;;;9.61;nan
70053;BME280;57398;52.032;4.376;2023-05-01T05:34:10;101646.38;;;9.62;nan
70053;BME280;57398;52.032;4.376;2023-05-01T05:36:58;101632.25;;;9.64;nan
70053;BME280;57398;52.032;4.376;2023-05-01T05:39:46;101628.88;;;9.71;nan
70053;BME280;57398;52.032;4.376;2023-05-01T05:42:34;101622.31;;;9.75;nan
70053;BME280;57398;52.032;4.376;2023-05-01T05:45:22;101609.19;;;9.83;nan
70053;BME280;57398;52.032;4.376;2023-05-01T05:48:12;101597.19;;;9.89;nan
70053;BME280;57398;52.032;4.376;2023-05-01T05:51:00;101581.84;;;9.94;nan
70053;BME280;57398;52.032;4.376;2023-05-01T05:53:49;101562.91;;;10.00;nan
70053;BME280;57398;52.032;4.376;2023-05-01T05:56:37;101531.78;;;10.06;nan
70053;BME280;57398;52.032;4.376;2023-05-01T05:59:25;101501.84;;;10.17;nan
70053;BME280;57398;52.032;4.376;2023-05-01T06:02:13;101494.06;;;10.24;nan
70053;BME280;57398;52.032;4.376;2023-05-01T06:05:04;101476.69;;;10.31;nan
70053;BME280;57398;52.032;4.376;2023-05-01T06:07:52;101463.13;;;10.36;nan
70053;BME280;57398;52.032;4.376;2023-05-01T06:10:42;101439.31;;;10.39;nan
70053;BME280;57398;52.032;4.376;2023-05-01T06:13:30;101439.50;;;10.51;nan
70053;BME280;57398;52.032;4.376;2023-05-01T06:16:18;101430.91;;;10.50;nan
70053;BME280;57398;52.032;4.376;2023-05-01T06:19:07;101434.72;;;10.54;nan
70053;BME280;57398;52.032;4.376;2023-05-01T06:21:57;101424.31;;;10.61;nan
70053;BME280;57398;52.032;4.376;2023-05-01T06:24:45;101412.91;;;10.55;nan
70053;BME280;57398;52.032;4.376;2023-05-01T06:27:33;101411.13;;;10.56;nan
70053;BME280;57398;52.032;4.376;2023-05-01T06:30:22;101400.72;;;10.56;nan
70053;BME280;57398;52.032;4.376;2023-05-01T06:33:10;101399.75;;;10.50;nan
70053;BME280;57398;52.032;4.376;2023-05-01T06:35:58;101378.78;;;10.52;nan
70053;BME280;57398;52.032;4.376;2023-05-01T06:38:48;101388.34;;;10.58;nan
70053;BME280;57398;52.032;4.376;2023-05-01T06:41:36;101380.97;;;10.55;nan
70053;BME280;57398;52.032;4.376;2023-05-01T06:44:24;101384.75;;;10.52;nan
70053;BME280;57398;52.032;4.376;2023-05-01T06:47:12;101375.16;;;10.53;nan
70053;BME280;57398;52.032;4.376;2023-05-01T06:50:03;101389.16;;;10.58;nan
70053;BME280;57398;52.032;4.376;2023-05-01T06:52:53;101385.94;;;10.63;nan
70053;BME280;57398;52.032;4.376;2023-05-01T06:55:42;101376.31;;;10.70;nan
70053;BME280;57398;52.032;4.376;2023-05-01T06:58:31;101374.66;;;10.82;nan
70053;BME280;57398;52.032;4.376;2023-05-01T07:01:19;101363.88;;;10.79;nan
70053;BME280;57398;52.032;4.376;2023-05-01T07:04:07;101353.44;;;10.85;nan
70053;BME280;57398;52.032;4.376;2023-05-01T07:06:56;101357.25;;;10.89;nan
70053;BME280;57398;52.032;4.376;2023-05-01T07:09:44;101342.44;;;10.90;nan
70053;BME280;57398;52.032;4.376;2023-05-01T07:12:33;101334.38;;;11.05;nan
70053;BME280;57398;52.032;4.376;2023-05-01T07:15:21;101326.78;;;11.03;nan
70053;BME280;57398;52.032;4.376;2023-05-01T07:18:10;101342.94;;;11.12;nan
70053;BME280;57398;52.032;4.376;2023-05-01T07:20:59;101346.31;;;11.13;nan
70053;BME280;57398;52.032;4.376;2023-05-01T07:23:47;101351.19;;;11.34;nan
70053;BME280;57398;52.032;4.376;2023-05-01T07:26:35;101344.47;;;11.51;nan
70053;BME280;57398;52.032;4.376;2023-05-01T07:29:25;101328.69;;;11.71;nan
70053;BME280;57398;52.032;4.376;2023-05-01T07:32:14;101302.97;;;11.82;nan
70053;BME280;57398;52.032;4.376;2023-05-01T07:35:02;101287.50;;;11.93;nan
70053;BME280;57398;52.032;4.376;2023-05-01T07:37:51;101264.78;;;12.19;nan
70053;BME280;57398;52.032;4.376;2023-05-01T07:40:39;101247.69;;;12.42;nan
70053;BME280;57398;52.032;4.376;2023-05-01T07:43:27;101226.28;;;12.51;nan
70053;BME280;57398;52.032;4.376;2023-05-01T07:46:16;101204.06;;;12.37;nan
70053;BME280;57398;52.032;4.376;2023-05-01T07:49:05;101211.91;;;12.49;nan
70053;BME280;57398;52.032;4.376;2023-05-01T07:51:53;101213.28;;;12.51;nan
70053;BME280;57398;52.032;4.376;2023-05-01T07:54:42;101222.25;;;12.55;nan
70053;BME280;57398;52.032;4.376;2023-05-01T07:57:30;101228.03;;;12.57;nan
70053;BME280;57398;52.032;4.376;2023-05-01T08:00:19;101232.25;;;12.70;nan
70053;BME280;57398;52.032;4.376;2023-05-01T08:03:08;101237.59;;;12.87;nan
70053;BME280;57398;52.032;4.376;2023-05-01T08:05:57;101229.22;;;12.85;nan
70053;BME280;57398;52.032;4.376;2023-05-01T08:08:45;101239.00;;;13.02;nan
70053;BME280;57398;52.032;4.376;2023-05-01T08:11:34;101233.91;;;12.95;nan
70053;BME280;57398;52.032;4.376;2023-05-01T08:14:22;101226.06;;;12.83;nan
70053;BME280;57398;52.032;4.376;2023-05-01T08:17:10;101237.16;;;12.78;nan
70053;BME280;57398;52.032;4.376;2023-05-01T08:20:00;101249.81;;;12.75;nan
70053;BME280;57398;52.032;4.376;2023-05-01T08:22:49;101252.47;;;12.56;nan
70053;BME280;57398;52.032;4.376;2023-05-01T08:25:37;101261.09;;;12.57;nan
70053;BME280;57398;52.032;4.376;2023-05-01T08:28:25;101285.19;;;12.52;nan
70053;BME280;57398;52.032;4.376;2023-05-01T08:31:13;101294.63;;;12.53;nan
70053;BME280;57398;52.032;4.376;2023-05-01T08:34:01;101305.34;;;12.45;nan
70053;BME280;57398;52.032;4.376;2023-05-01T08:36:51;101305.41;;;12.39;nan
70053;BME280;57398;52.032;4.376;2023-05-01T08:39:39;101307.31;;;12.31;nan
70053;BME280;57398;52.032;4.376;2023-05-01T08:42:27;101297.53;;;12.27;nan
70053;BME280;57398;52.032;4.376;2023-05-01T08:45:18;101310.03;;;12.36;nan
70053;BME280;57398;52.032;4.376;2023-05-01T08:48:07;101320.97;;;12.27;nan
70053;BME280;57398;52.032;4.376;2023-05-01T08:50:56;101310.13;;;12.30;nan
70053;BME280;57398;52.032;4.376;2023-05-01T08:53:48;101321.28;;;12.37;nan
70053;BME280;57398;52.032;4.376;2023-05-01T08:56:38;101341.16;;;12.31;nan
70053;BME280;57398;52.032;4.376;2023-05-01T08:59:26;101344.63;;;12.25;nan
70053;BME280;57398;52.032;4.376;2023-05-01T09:02:17;101350.41;;;12.27;nan
70053;BME280;57398;52.032;4.376;2023-05-01T09:05:06;101355.34;;;12.17;nan
70053;BME280;57398;52.032;4.376;2023-05-01T09:07:55;101368.56;;;12.15;nan
70053;BME280;57398;52.032;4.376;2023-05-01T09:10:47;101373.06;;;12.08;nan
70053;BME280;57398;52.032;4.376;2023-05-01T09:13:35;101366.00;;;11.90;nan
70053;BME280;57398;52.032;4.376;2023-05-01T09:16:24;101387.97;;;11.69;nan
70053;BME280;57398;52.032;4.376;2023-05-01T09:19:12;101405.00;;;11.65;nan
70053;BME280;57398;52.032;4.376;2023-05-01T09:22:00;101439.63;;;11.34;nan
70053;BME280;57398;52.032;4.376;2023-05-01T09:24:48;101490.34;;;11.05;nan
70053;BME280;57398;52.032;4.376;2023-05-01T09:27:38;101520.38;;;10.94;nan
70053;BME280;57398;52.032;4.376;2023-05-01T09:30:30;101532.22;;;10.77;nan
70053;BME280;57398;52.032;4.376;2023-05-01T09:33:19;101547.22;;;10.68;nan
70053;BME280;57398;52.032;4.376;2023-05-01T09:36:07;101556.22;;;10.65;nan
70053;BME280;57398;52.032;4.376;2023-05-01T09:38:56;101567.22;;;10.67;nan
70053;BME280;57398;52.032;4.376;2023-05-01T09:41:51;101545.78;;;10.79;nan
70053;BME280;57398;52.032;4.376;2023-05-01T09:44:41;101557.19;;;10.78;nan
70053;BME280;57398;52.032;4.376;2023-05-01T09:47:31;101565.19;;;10.69;nan
70053;BME280;57398;52.032;4.376;2023-05-01T09:50:29;101562.38;;;10.91;nan
70053;BME280;57398;52.032;4.376;2023-05-01T09:53:18;101564.38;;;10.82;nan
70053;BME280;57398;52.032;4.376;2023-05-01T09:56:06;101567.41;;;10.73;nan
70053;BME280;57398;52.032;4.376;2023-05-01T09:58:57;101562.56;;;10.76;nan
70053;BME280;57398;52.032;4.376;2023-05-01T10:01:48;101566.19;;;10.82;nan
70053;BME280;57398;52.032;4.376;2023-05-01T10:04:37;101585.38;;;10.87;nan
70053;BME280;57398;52.032;4.376;2023-05-01T10:07:25;101583.38;;;10.83;nan
70053;BME280;57398;52.032;4.376;2023-05-01T10:10:15;101593.38;;;10.86;nan
70053;BME280;57398;52.032;4.376;2023-05-01T10:13:12;101595.38;;;10.97;nan
70053;BME280;57398;52.032;4.376;2023-05-01T10:16:00;101597.75;;;10.99;nan
70053;BME280;57398;52.032;4.376;2023-05-01T10:18:55;101593.94;;;10.95;nan
70053;BME280;57398;52.032;4.376;2023-05-01T10:21:44;101603.13;;;11.04;nan
70053;BME280;57398;52.032;4.376;2023-05-01T10:24:32;101594.94;;;11.14;nan
70053;BME280;57398;52.032;4.376;2023-05-01T10:27:23;101603.53;;;11.21;nan
70053;BME280;57398;52.032;4.376;2023-05-01T10:30:13;101598.50;;;11.26;nan
70053;BME280;57398;52.032;4.376;2023-05-01T10:33:02;101598.66;;;11.38;nan
70053;BME280;57398;52.032;4.376;2023-05-01T10:35:56;101606.88;;;11.41;nan
70053;BME280;57398;52.032;4.376;2023-05-01T10:38:46;101603.88;;;11.38;nan
70053;BME280;57398;52.032;4.376;2023-05-01T10:42:03;101596.84;;;11.45;nan
70053;BME280;57398;52.032;4.376;2023-05-01T10:44:51;101598.84;;;11.43;nan
70053;BME280;57398;52.032;4.376;2023-05-01T10:47:43;101603.38;;;11.67;nan
70053;BME280;57398;52.032;4.376;2023-05-01T10:50:33;101603.31;;;11.81;nan
70053;BME280;57398;52.032;4.376;2023-05-01T10:53:22;101617.72;;;11.90;nan
70053;BME280;57398;52.032;4.376;2023-05-01T10:56:39;101614.97;;;11.78;nan
70053;BME280;57398;52.032;4.376;2023-05-01T11:00:09;101585.63;;;12.03;nan
70053;BME280;57398;52.032;4.376;2023-05-01T11:06:19;101538.31;;;12.38;nan
70053;BME280;57398;52.032;4.376;2023-05-01T11:09:36;101514.97;;;12.49;nan
70053;BME280;57398;52.032;4.376;2023-05-01T11:12:51;101479.28;;;12.68;nan
70053;BME280;57398;52.032;4.376;2023-05-01T11:15:39;101471.78;;;12.78;nan
70053;BME280;57398;52.032;4.376;2023-05-01T11:18:45;101442.00;;;12.86;nan
70053;BME280;57398;52.032;4.376;2023-05-01T11:21:34;101441.59;;;13.19;nan
70053;BME280;57398;52.032;4.376;2023-05-01T11:24:30;101432.28;;;13.42;nan
70053;BME280;57398;52.032;4.376;2023-05-01T11:27:20;101422.69;;;13.24;nan
70053;BME280;57398;52.032;4.376;2023-05-01T11:30:09;101410.59;;;13.11;nan
70053;BME280;57398;52.032;4.376;2023-05-01T11:32:58;101413.34;;;13.16;nan
70053;BME280;57398;52.032;4.376;2023-05-01T11:35:56;101405.25;;;13.06;nan
70053;BME280;57398;52.032;4.376;2023-05-01T11:38:51;101391.19;;;13.07;nan
70053;BME280;57398;52.032;4.376;2023-05-01T11:41:39;101383.75;;;13.23;nan
70053;BME280;57398;52.032;4.376;2023-05-01T11:44:29;101358.88;;;13.08;nan
70053;BME280;57398;52.032;4.376;2023-05-01T11:47:17;101336.81;;;13.23;nan
70053;BME280;57398;52.032;4.376;2023-05-01T11:50:07;101346.22;;;13.24;nan
70053;BME280;57398;52.032;4.376;2023-05-01T11:52:55;101351.28;;;13.60;nan
70053;BME280;57398;52.032;4.376;2023-05-01T11:55:44;101338.03;;;13.50;nan
70053;BME280;57398;52.032;4.376;2023-05-01T11:58:33;101329.88;;;13.82;nan
70053;BME280;57398;52.032;4.376;2023-05-01T12:01:33;101327.59;;;13.97;nan
70053;BME280;57398;52.032;4.376;2023-05-01T12:04:23;101328.00;;;14.30;nan
70053;BME280;57398;52.032;4.376;2023-05-01T12:07:19;101306.06;;;14.31;nan
70053;BME280;57398;52.032;4.376;2023-05-01T12:10:08;101304.53;;;14.87;nan
70053;BME280;57398;52.032;4.376;2023-05-01T12:12:57;101301.16;;;15.37;nan
70053;BME280;57398;52.032;4.376;2023-05-01T12:15:46;101281.31;;;15.41;nan
70053;BME280;57398;52.032;4.376;2023-05-01T12:18:36;101271.09;;;15.06;nan
70053;BME280;57398;52.032;4.376;2023-05-01T12:21:24;101263.03;;;14.62;nan
70053;BME280;57398;52.032;4.376;2023-05-01T12:24:14;101258.88;;;15.12;nan
70053;BME280;57398;52.032;4.376;2023-05-01T12:27:03;101240.78;;;15.27;nan
70053;BME280;57398;52.032;4.376;2023-05-01T12:29:53;101237.09;;;15.62;nan
70053;BME280;57398;52.032;4.376;2023-05-01T12:32:41;101229.06;;;15.29;nan
70053;BME280;57398;52.032;4.376;2023-05-01T12:35:31;101224.31;;;15.26;nan
70053;BME280;57398;52.032;4.376;2023-05-01T12:38:20;101213.16;;;15.53;nan
70053;BME280;57398;52.032;4.376;2023-05-01T12:41:09;101205.66;;;15.23;nan
70053;BME280;57398;52.032;4.376;2023-05-01T12:43:59;101217.41;;;15.59;nan
70053;BME280;57398;52.032;4.376;2023-05-01T12:46:53;101200.91;;;15.20;nan
70053;BME280;57398;52.032;4.376;2023-05-01T12:49:41;101197.34;;;15.26;nan
70053;BME280;57398;52.032;4.376;2023-05-01T12:52:31;101189.44;;;15.43;nan
70053;BME280;57398;52.032;4.376;2023-05-01T12:55:19;101199.94;;;15.43;nan
70053;BME280;57398;52.032;4.376;2023-05-01T12:58:08;101210.75;;;15.13;nan
70053;BME280;57398;52.032;4.376;2023-05-01T13:00:56;101197.50;;;15.02;nan
70053;BME280;57398;52.032;4.376;2023-05-01T13:03:45;101198.94;;;14.93;nan
70053;BME280;57398;52.032;4.376;2023-05-01T13:06:33;101214.56;;;14.88;nan
70053;BME280;57398;52.032;4.376;2023-05-01T13:09:24;101215.75;;;14.80;nan
70053;BME280;57398;52.032;4.376;2023-05-01T13:12:13;101224.69;;;14.68;nan
70053;BME280;57398;52.032;4.376;2023-05-01T13:15:01;101230.22;;;14.42;nan
70053;BME280;57398;52.032;4.376;2023-05-01T13:17:49;101230.53;;;14.58;nan
70053;BME280;57398;52.032;4.376;2023-05-01T13:20:37;101227.63;;;14.71;nan
70053;BME280;57398;52.032;4.376;2023-05-01T13:23:26;101208.22;;;14.67;nan
70053;BME280;57398;52.032;4.376;2023-05-01T13:26:16;101201.81;;;14.92;nan
70053;BME280;57398;52.032;4.376;2023-05-01T13:29:04;101186.56;;;14.88;nan
70053;BME280;57398;52.032;4.376;2023-05-01T13:31:53;101185.44;;;15.35;nan
70053;BME280;57398;52.032;4.376;2023-05-01T13:34:41;101173.03;;;15.47;nan
70053;BME280;57398;52.032;4.376;2023-05-01T13:37:29;101160.81;;;15.53;nan
70053;BME280;57398;52.032;4.376;2023-05-01T13:40:18;101136.56;;;15.85;nan
70053;BME280;57398;52.032;4.376;2023-05-01T13:43:12;101138.00;;;16.57;nan
70053;BME280;57398;52.032;4.376;2023-05-01T13:46:02;101120.78;;;16.66;nan
70053;BME280;57398;52.032;4.376;2023-05-01T13:48:50;101109.75;;;16.32;nan
70053;BME280;57398;52.032;4.376;2023-05-01T13:51:40;101118.31;;;16.49;nan
70053;BME280;57398;52.032;4.376;2023-05-01T13:54:29;101107.81;;;16.49;nan
70053;BME280;57398;52.032;4.376;2023-05-01T13:57:17;101086.38;;;16.63;nan
70053;BME280;57398;52.032;4.376;2023-05-01T14:00:09;101089.91;;;16.09;nan
70053;BME280;57398;52.032;4.376;2023-05-01T14:03:03;101084.09;;;16.34;nan
70053;BME280;57398;52.032;4.376;2023-05-01T14:05:51;101078.03;;;16.71;nan
70053;BME280;57398;52.032;4.376;2023-05-01T14:08:39;101076.22;;;16.34;nan
70053;BME280;57398;52.032;4.376;2023-05-01T14:11:28;101072.72;;;16.98;nan
70053;BME280;57398;52.032;4.376;2023-05-01T14:14:18;101067.31;;;16.35;nan
70053;BME280;57398;52.032;4.376;2023-05-01T14:17:07;101068.03;;;16.25;nan
70053;BME280;57398;52.032;4.376;2023-05-01T14:19:56;101062.25;;;15.96;nan
70053;BME280;57398;52.032;4.376;2023-05-01T14:22:45;101066.88;;;15.84;nan
70053;BME280;57398;52.032;4.376;2023-05-01T14:25:33;101065.31;;;15.83;nan
70053;BME280;57398;52.032;4.376;2023-05-01T14:28:22;101066.72;;;16.28;nan
70053;BME280;57398;52.032;4.376;2023-05-01T14:31:15;101058.63;;;16.29;nan
70053;BME280;57398;52.032;4.376;2023-05-01T14:34:05;101067.31;;;16.35;nan
70053;BME280;57398;52.032;4.376;2023-05-01T14:36:53;101076.31;;;15.85;nan
70053;BME280;57398;52.032;4.376;2023-05-01T14:39:42;101069.66;;;15.72;nan
70053;BME280;57398;52.032;4.376;2023-05-01T14:42:30;101074.03;;;15.94;nan
70053;BME280;57398;52.032;4.376;2023-05-01T14:45:18;101075.44;;;15.74;nan
70053;BME280;57398;52.032;4.376;2023-05-01T14:48:06;101076.69;;;15.99;nan
70053;BME280;57398;52.032;4.376;2023-05-01T14:50:56;101091.38;;;15.28;nan
70053;BME280;57398;52.032;4.376;2023-05-01T14:53:45;101098.28;;;15.62;nan
70053;BME280;57398;52.032;4.376;2023-05-01T14:56:33;101111.06;;;14.92;nan
70053;BME280;57398;52.032;4.376;2023-05-01T14:59:21;101107.84;;;15.07;nan
70053;BME280;57398;52.032;4.376;2023-05-01T15:02:10;101112.44;;;15.00;nan
70053;BME280;57398;52.032;4.376;2023-05-01T15:04:58;101108.66;;;15.29;nan
70053;BME280;57398;52.032;4.376;2023-05-01T15:07:49;101101.06;;;15.28;nan
70053;BME280;57398;52.032;4.376;2023-05-01T15:10:37;101095.44;;;15.85;nan
70053;BME280;57398;52.032;4.376;2023-05-01T15:13:25;101087.84;;;15.84;nan
70053;BME280;57398;52.032;4.376;2023-05-01T15:16:15;101068.22;;;15.64;nan
70053;BME280;57398;52.032;4.376;2023-05-01T15:19:03;101067.63;;;15.57;nan
70053;BME280;57398;52.032;4.376;2023-05-01T15:21:51;101073.34;;;15.32;nan